North Portal, Canada
Current Conditions -  °F | °C
As of 10:00 PM on Tuesday 27 Jan 2015 (Local Time) from CYEN Reporting Station
Overcast Overcast  
Wind Chill: 22°   Ceiling: 15000
Heat Index: 28°   Visibility: 15mi
Dew Point: 27°   Wind: 6mph
Humidity: 93%   Direction: 70°ENE
Pressure: 29.77"   Gusts: NA
Location:  49°N, 102.55°W
Report Text: CYEN 280400Z 07005KT 15SM BKN150 OVC220 M02/M03 A2977 RMK AS6CI0 SLP111
Loading
Personal Weather Stations






























Interactive Weather Map New forecast layout! Learn more

10-Day Weather Forecast

Advertisements
Track Severe Weather on mobile